This demonstration page uses our WeatherBlox Daily Observations layout. Learn more.

Left ArrowRight Arrow

Hourly Observations for July 16, 2015

Temp ( °F °C ) Dew Point ( °F °C ) Humidity (%) Winds ( mph kmh ) Pressure ( in mb ) Visibility ( mi km ) Precip ( " mm )
12:51 am 00:51 Clear 72 22.2 59 15 64 64 WNW 13 20 29.85 1011 10 16.0934 N/A
1:51 am 01:51 Clear 73 22.8 59 15 62 62 NNE 14 22 29.84 1011 10 16.0934 N/A
2:51 am 02:51 Clear 71 21.7 53 11.7 53 53 SSW 5 7 29.87 1012 10 16.0934 N/A
3:51 am 03:51 Clear 69 20.6 62 16.7 78 78 N N/A 29.86 1011 10 16.0934 N/A
4:51 am 04:51 Clear 69 20.6 63 17.2 81 81 N N/A 29.87 1012 10 16.0934 N/A
5:51 am 05:51 Sunny 71 21.7 61 16.1 71 71 NW 5 7 29.88 1012 10 16.0934 N/A
6:51 am 06:51 Sunny 74 23.3 62 16.7 67 67 N N/A 29.9 1013 10 16.0934 N/A
7:51 am 07:51 Sunny 76 24.4 60 15.6 58 58 N N/A 29.91 1013 10 16.0934 N/A
8:51 am 08:51 Sunny 81 27.2 58 14.4 45 45 N 3 6 29.9 1013 10 16.0934 N/A
9:51 am 09:51 Sunny 68 20 35 1.7 30 30 VRB 3 6 29.88 1012 10 16.0934 N/A
10:51 am 10:51 Sunny 87 30.6 57 13.9 36 36 undefined N/A 29.89 1012 10 16.0934 N/A
11:51 am 11:51 Sunny 91 32.8 56 13.3 31 31 NW 10 17 29.85 1011 10 16.0934 N/A
12:51 pm 12:51 Sunny 94 34.4 55 12.8 27 27 W 14 22 29.82 1010 10 16.0934 N/A
1:51 pm 13:51 Sunny 95 35 53 11.7 24 24 WNW 13 20 29.78 1009 10 16.0934 N/A
2:51 pm 14:51 Sunny 95 35 51 10.6 23 23 WNW 10 17 29.77 1008 10 16.0934 N/A
3:51 pm 15:51 Sunny 94 34.4 51 10.6 23 23 N N/A 29.75 1008 10 16.0934 N/A
4:51 pm 16:51 Sunny 91 32.8 69 20.6 49 49 NNE 20 31 29.87 1011 10 16.0934 N/A
5:51 pm 17:51 Sunny 85 29.4 52 11.1 32 32 NNE 14 22 29.84 1011 10 16.0934 N/A
6:51 pm 18:51 Sunny 91 32.8 49 9.4 24 24 NNE 7 11 29.75 1008 10 16.0934 N/A
7:51 pm 19:51 Clear 87 30.6 56 13.3 35 35 N 5 7 29.78 1009 10 16.0934 N/A
8:51 pm 20:51 Clear 86 30 55 12.8 35 35 SSE 9 15 29.81 1009 10 16.0934 N/A
9:51 pm 21:51 Clear 84 28.9 56 13.3 38 38 ESE 7 11 29.8 1009 10 16.0934 N/A
10:51 pm 22:51 Clear 83 28.3 56 13.3 40 40 E 10 17 29.8 1009 10 16.0934 N/A
11:51 pm 23:51 Clear 81 27.2 56 13.3 42 42 ESE 6 9 29.8 1009 10 16.0934 N/A

Powered by AerisWeather